createdAt,value
2024-03-04T00:00:13.295Z,9.79
2024-03-04T00:02:41.976Z,9.73
2024-03-04T00:05:10.639Z,9.68
2024-03-04T00:07:39.062Z,9.64
2024-03-04T00:10:09.244Z,9.66
2024-03-04T00:12:38.936Z,9.63
2024-03-04T00:15:09.354Z,9.63
2024-03-04T00:17:37.766Z,9.67
2024-03-04T00:20:07.926Z,9.62
2024-03-04T00:22:36.352Z,9.58
2024-03-04T00:25:07.093Z,9.56
2024-03-04T00:27:35.284Z,9.55
2024-03-04T00:30:05.975Z,9.48
2024-03-04T00:32:34.180Z,9.48
2024-03-04T00:35:02.453Z,9.48
2024-03-04T00:37:30.969Z,9.46
2024-03-04T00:39:59.244Z,9.44
2024-03-04T00:42:28.628Z,9.41
2024-03-04T00:44:57.310Z,9.36
2024-03-04T00:47:26.805Z,9.37
2024-03-04T00:49:54.956Z,9.33
2024-03-04T00:52:23.097Z,9.44
2024-03-04T00:54:51.306Z,9.36
2024-03-04T00:57:20.679Z,9.31
2024-03-04T00:59:49.013Z,9.31
2024-03-04T01:02:19.268Z,9.26
2024-03-04T01:04:49.493Z,9.18
2024-03-04T01:07:18.230Z,9.23
2024-03-04T01:09:46.531Z,9.18
2024-03-04T01:12:15.834Z,9.17
2024-03-04T01:14:44.173Z,9.15
2024-03-04T01:17:17.785Z,9.20
2024-03-04T01:19:47.863Z,9.12
2024-03-04T01:22:18.769Z,9.12
2024-03-04T01:24:51.328Z,9.10
2024-03-04T01:27:21.275Z,9.07
2024-03-04T01:29:49.464Z,9.11
2024-03-04T01:32:21.325Z,9.02
2024-03-04T01:34:49.960Z,8.96
2024-03-04T01:37:20.368Z,8.94
2024-03-04T01:39:48.647Z,8.92
2024-03-04T01:42:17.038Z,8.94
2024-03-04T01:44:45.374Z,8.89
2024-03-04T01:47:19.345Z,8.83
2024-03-04T01:49:47.960Z,8.86
2024-03-04T01:52:16.941Z,8.88
2024-03-04T01:54:48.240Z,8.81
2024-03-04T01:57:18.732Z,8.78
2024-03-04T01:59:48.286Z,8.81
2024-03-04T02:02:17.235Z,8.77
2024-03-04T02:04:45.863Z,8.74
2024-03-04T02:07:18.301Z,8.72
2024-03-04T02:09:49.120Z,8.71
2024-03-04T02:12:18.665Z,8.67
2024-03-04T02:14:47.261Z,8.67
2024-03-04T02:17:16.143Z,8.73
2024-03-04T02:19:44.810Z,8.67
2024-03-04T02:22:13.843Z,8.59
2024-03-04T02:24:43.897Z,8.56
2024-03-04T02:27:11.901Z,8.64
2024-03-04T02:29:40.195Z,8.52
2024-03-04T02:32:08.731Z,8.49
2024-03-04T02:34:37.094Z,8.51
2024-03-04T02:37:05.710Z,8.65
2024-03-04T02:39:33.954Z,8.60
2024-03-04T02:42:04.002Z,8.51
2024-03-04T02:44:33.437Z,8.50
2024-03-04T02:47:02.273Z,8.40
2024-03-04T02:49:31.394Z,8.40
2024-03-04T02:51:59.825Z,8.37
2024-03-04T02:54:28.047Z,8.35
2024-03-04T02:56:57.183Z,8.35
2024-03-04T02:59:26.781Z,8.30
2024-03-04T03:01:56.309Z,8.30
2024-03-04T03:04:25.753Z,8.30
2024-03-04T03:06:54.119Z,8.27
2024-03-04T03:09:22.510Z,8.24
2024-03-04T03:11:50.646Z,8.28
2024-03-04T03:14:18.703Z,8.27
2024-03-04T03:16:48.135Z,8.21
2024-03-04T03:19:23.075Z,8.22
2024-03-04T03:21:52.841Z,8.18
2024-03-04T03:24:21.422Z,8.16
2024-03-04T03:26:50.017Z,8.13
2024-03-04T03:29:18.433Z,8.17
2024-03-04T03:31:48.009Z,8.11
2024-03-04T03:34:16.204Z,8.12
2024-03-04T03:36:44.636Z,8.10
2024-03-04T03:39:14.048Z,7.99
2024-03-04T03:41:42.477Z,8.01
2024-03-04T03:44:10.471Z,8.02
2024-03-04T03:46:40.971Z,8.00
2024-03-04T03:49:13.522Z,8.03
2024-03-04T03:51:41.725Z,7.95
2024-03-04T03:54:10.928Z,7.94
2024-03-04T03:56:42.265Z,7.92
2024-03-04T03:59:10.962Z,7.94
2024-03-04T04:01:39.388Z,7.87
2024-03-04T04:04:07.466Z,7.83
2024-03-04T04:06:36.917Z,7.83
2024-03-04T04:09:05.303Z,7.82
2024-03-04T04:11:33.730Z,7.78
2024-03-04T04:14:01.822Z,7.80
2024-03-04T04:16:30.351Z,7.79
2024-03-04T04:18:59.224Z,7.80
2024-03-04T04:21:27.878Z,7.77
2024-03-04T04:23:57.401Z,7.85
2024-03-04T04:26:26.093Z,7.84
2024-03-04T04:28:54.357Z,7.83
2024-03-04T04:31:23.079Z,7.87
2024-03-04T04:33:51.649Z,7.84
2024-03-04T04:36:20.147Z,7.80
2024-03-04T04:38:50.508Z,7.83
2024-03-04T04:41:20.085Z,7.83
2024-03-04T04:43:48.478Z,7.75
2024-03-04T04:46:17.392Z,7.77
2024-03-04T04:48:45.988Z,7.68
2024-03-04T04:51:14.323Z,7.66
2024-03-04T04:53:42.453Z,7.62
2024-03-04T04:56:10.548Z,7.64
2024-03-04T04:58:40.474Z,7.59
2024-03-04T05:01:08.886Z,7.54
2024-03-04T05:03:52.400Z,7.57
2024-03-04T05:06:25.606Z,7.56
2024-03-04T05:08:53.852Z,7.52
2024-03-04T05:11:23.492Z,7.50
2024-03-04T05:13:53.641Z,7.46
2024-03-04T05:16:21.963Z,7.50
2024-03-04T05:18:50.078Z,7.49
2024-03-04T05:21:18.759Z,7.50
2024-03-04T05:23:47.220Z,7.44
2024-03-04T05:26:15.683Z,7.38
2024-03-04T05:28:46.846Z,7.32
2024-03-04T05:31:16.549Z,7.37
2024-03-04T05:33:47.174Z,7.39
2024-03-04T05:36:15.487Z,7.43
2024-03-04T05:38:43.669Z,7.44
2024-03-04T05:41:11.981Z,7.40
2024-03-04T05:43:40.361Z,7.33
2024-03-04T05:46:08.824Z,7.35
2024-03-04T05:48:38.264Z,7.33
2024-03-04T05:51:06.894Z,7.30
2024-03-04T05:53:35.261Z,7.29
2024-03-04T05:56:05.658Z,7.27
2024-03-04T05:58:34.157Z,7.24
2024-03-04T06:01:02.455Z,7.21
2024-03-04T06:03:30.978Z,7.26
2024-03-04T06:06:00.584Z,7.24
2024-03-04T06:08:28.645Z,7.23
2024-03-04T06:10:56.890Z,7.18
2024-03-04T06:13:25.034Z,7.34
2024-03-04T06:15:53.415Z,7.29
2024-03-04T06:18:21.879Z,7.38
2024-03-04T06:20:50.085Z,7.33
2024-03-04T06:23:20.284Z,7.36
2024-03-04T06:25:48.509Z,7.31
2024-03-04T06:28:17.122Z,7.43
2024-03-04T06:30:46.128Z,7.36
2024-03-04T06:33:14.416Z,7.49
2024-03-04T06:35:42.553Z,7.56
2024-03-04T06:38:11.083Z,7.82
2024-03-04T06:40:41.028Z,7.72
2024-03-04T06:43:09.217Z,7.82
2024-03-04T06:45:40.248Z,7.92
2024-03-04T06:48:09.195Z,7.85
2024-03-04T06:50:39.857Z,7.92
2024-03-04T06:53:10.283Z,7.94
2024-03-04T06:55:38.852Z,7.92
2024-03-04T06:58:08.378Z,8.12
2024-03-04T07:00:36.765Z,8.29
2024-03-04T07:03:06.165Z,8.12
2024-03-04T07:05:35.584Z,8.08
2024-03-04T07:08:03.897Z,8.37
2024-03-04T07:10:32.448Z,8.56
2024-03-04T07:13:02.341Z,8.52
2024-03-04T07:15:32.148Z,8.38
2024-03-04T07:18:00.429Z,8.23
2024-03-04T07:20:28.622Z,8.78
2024-03-04T07:22:57.080Z,9.10
2024-03-04T07:25:25.633Z,9.52
2024-03-04T07:27:53.946Z,10.06
2024-03-04T07:30:22.448Z,10.44
2024-03-04T07:32:52.254Z,10.85
2024-03-04T07:35:20.385Z,10.69
2024-03-04T07:37:48.536Z,11.16
2024-03-04T07:40:16.973Z,11.12
2024-03-04T07:42:45.438Z,11.28
2024-03-04T07:45:14.231Z,11.83
2024-03-04T07:47:42.631Z,12.20
2024-03-04T07:50:12.564Z,12.15
2024-03-04T07:52:40.880Z,12.06
2024-03-04T07:55:12.806Z,12.52
2024-03-04T07:57:44.346Z,13.00
2024-03-04T08:00:14.264Z,12.49
2024-03-04T08:02:44.551Z,12.77
2024-03-04T08:05:14.695Z,13.16
2024-03-04T08:07:43.263Z,13.38
2024-03-04T08:10:14.570Z,12.86
2024-03-04T08:12:42.822Z,12.73
2024-03-04T08:15:11.997Z,13.76
2024-03-04T08:17:49.902Z,13.39
2024-03-04T08:20:33.297Z,13.76
2024-03-04T08:23:04.421Z,14.27
2024-03-04T08:25:33.084Z,14.55
2024-03-04T08:28:01.912Z,15.01
2024-03-04T08:30:30.232Z,14.66
2024-03-04T08:32:58.529Z,14.27
2024-03-04T08:35:28.567Z,15.05
2024-03-04T08:37:56.970Z,14.40
2024-03-04T08:40:27.113Z,14.36
2024-03-04T08:42:55.390Z,14.57
2024-03-04T08:45:25.019Z,15.16
2024-03-04T08:47:56.622Z,14.99
2024-03-04T08:50:25.092Z,15.18
2024-03-04T08:52:54.611Z,15.37
2024-03-04T08:55:26.382Z,15.98
2024-03-04T08:57:54.746Z,15.52
2024-03-04T09:00:25.671Z,14.58
2024-03-04T09:02:58.121Z,13.74
2024-03-04T09:05:26.433Z,13.65
2024-03-04T09:07:56.310Z,13.31
2024-03-04T09:10:25.270Z,13.46
2024-03-04T09:12:53.543Z,12.99
2024-03-04T09:15:22.569Z,12.18
2024-03-04T09:17:51.081Z,12.19
2024-03-04T09:20:21.411Z,11.41
2024-03-04T09:22:50.059Z,11.15
2024-03-04T09:25:19.890Z,11.11
2024-03-04T09:27:48.020Z,10.89
2024-03-04T09:30:16.553Z,11.18
2024-03-04T09:32:44.814Z,11.01
2024-03-04T09:35:13.298Z,10.97
2024-03-04T09:37:41.878Z,11.11
2024-03-04T09:40:12.438Z,11.06
2024-03-04T09:42:47.397Z,11.03
2024-03-04T09:45:15.928Z,11.27
2024-03-04T09:47:47.779Z,10.99
2024-03-04T09:50:16.056Z,10.95
2024-03-04T09:52:46.537Z,10.91
2024-03-04T09:55:15.126Z,10.62
2024-03-04T09:57:45.275Z,10.78
2024-03-04T10:00:15.616Z,11.32
2024-03-04T10:02:44.126Z,11.03
2024-03-04T10:05:13.534Z,10.97
2024-03-04T10:07:55.885Z,10.80
2024-03-04T10:10:28.765Z,10.81
2024-03-04T10:13:02.058Z,10.97
2024-03-04T10:15:30.826Z,11.08
2024-03-04T10:18:11.493Z,11.08
2024-03-04T10:20:40.073Z,10.96
2024-03-04T10:23:08.459Z,11.14
2024-03-04T10:25:36.987Z,11.04
2024-03-04T10:28:08.175Z,11.31
2024-03-04T10:30:36.608Z,11.34
2024-03-04T10:33:06.109Z,11.55
2024-03-04T10:35:35.632Z,11.34
2024-03-04T10:38:05.203Z,11.51
2024-03-04T10:40:35.450Z,11.75
2024-03-04T10:43:08.765Z,11.59
2024-03-04T10:45:36.985Z,11.51
2024-03-04T10:48:05.992Z,11.47
2024-03-04T10:50:34.867Z,11.77
2024-03-04T10:53:04.420Z,11.68
2024-03-04T10:55:33.408Z,11.55
2024-03-04T10:58:04.386Z,11.61
2024-03-04T11:00:35.998Z,11.53
2024-03-04T11:03:14.161Z,11.25
2024-03-04T11:05:45.287Z,11.22
2024-03-04T11:08:17.392Z,11.27
2024-03-04T11:10:50.239Z,11.19
2024-03-04T11:13:23.124Z,11.05
2024-03-04T11:15:59.418Z,11.07
2024-03-04T11:18:39.841Z,11.29
2024-03-04T11:21:08.019Z,11.60
2024-03-04T11:23:36.703Z,11.51
2024-03-04T11:26:07.375Z,11.67
2024-03-04T11:28:36.797Z,11.81
2024-03-04T11:31:11.851Z,11.72
2024-03-04T11:33:41.780Z,11.93
2024-03-04T11:36:11.335Z,12.14
2024-03-04T11:38:43.831Z,12.00
2024-03-04T11:41:12.579Z,12.13
2024-03-04T11:43:47.396Z,12.47
2024-03-04T11:46:17.843Z,12.88
2024-03-04T11:48:48.559Z,13.47
2024-03-04T11:51:18.343Z,13.41
2024-03-04T11:53:46.533Z,12.70
2024-03-04T11:56:15.750Z,12.82
2024-03-04T11:58:44.311Z,13.32
2024-03-04T12:01:19.334Z,13.25
2024-03-04T12:03:55.766Z,13.01
2024-03-04T12:06:24.087Z,13.77
2024-03-04T12:09:09.462Z,13.76
2024-03-04T12:11:42.081Z,14.47
2024-03-04T12:14:10.572Z,15.66
2024-03-04T12:16:40.201Z,14.88
2024-03-04T12:19:10.091Z,14.12
2024-03-04T12:21:38.891Z,15.11
2024-03-04T12:24:08.435Z,14.48
2024-03-04T12:26:37.160Z,13.88
2024-03-04T12:29:08.062Z,13.38
2024-03-04T12:31:39.061Z,13.24
2024-03-04T12:34:11.388Z,13.63
2024-03-04T12:36:43.971Z,13.51
2024-03-04T12:39:14.028Z,13.40
2024-03-04T12:41:42.455Z,13.43
2024-03-04T12:44:10.793Z,13.54
2024-03-04T12:46:39.192Z,13.51
2024-03-04T12:49:09.103Z,14.05
2024-03-04T12:51:38.792Z,14.16
2024-03-04T12:54:07.392Z,13.57
2024-03-04T12:56:35.629Z,14.18
2024-03-04T12:59:04.075Z,14.52
2024-03-04T13:01:32.926Z,14.69
2024-03-04T13:04:04.949Z,14.46
2024-03-04T13:06:33.440Z,14.27
2024-03-04T13:09:04.353Z,14.28
2024-03-04T13:11:33.038Z,14.14
2024-03-04T13:14:01.409Z,13.82
2024-03-04T13:16:29.819Z,13.72
2024-03-04T13:19:01.231Z,13.67
2024-03-04T13:21:29.983Z,13.48
2024-03-04T13:24:04.158Z,13.97
2024-03-04T13:26:32.754Z,13.87
2024-03-04T13:29:01.169Z,13.60
2024-03-04T13:31:29.553Z,13.99
2024-03-04T13:33:58.083Z,13.29
2024-03-04T13:36:26.357Z,13.09
2024-03-04T13:38:55.019Z,12.94
2024-03-04T13:41:24.816Z,12.68
2024-03-04T13:43:52.923Z,12.69
2024-03-04T13:46:22.497Z,12.74
2024-03-04T13:48:51.224Z,12.47
2024-03-04T13:51:18.424Z,12.50
2024-03-04T13:53:48.653Z,12.38
2024-03-04T13:56:17.193Z,12.40
2024-03-04T13:58:46.951Z,12.55
2024-03-04T14:01:15.697Z,12.64
2024-03-04T14:03:45.965Z,12.48
2024-03-04T14:06:16.106Z,12.50
2024-03-04T14:08:44.742Z,12.27
2024-03-04T14:11:12.932Z,12.27
2024-03-04T14:13:41.976Z,12.46
2024-03-04T14:16:11.918Z,12.82
2024-03-04T14:18:40.334Z,13.10
2024-03-04T14:21:08.942Z,13.02
2024-03-04T14:23:39.144Z,12.91
2024-03-04T14:26:11.452Z,12.70
2024-03-04T14:28:40.084Z,12.58
2024-03-04T14:31:09.036Z,12.71
2024-03-04T14:33:38.657Z,12.90
2024-03-04T14:36:07.837Z,12.93
2024-03-04T14:38:36.858Z,13.05
2024-03-04T14:41:05.775Z,12.87
2024-03-04T14:43:34.546Z,12.90
2024-03-04T14:46:03.590Z,12.91
2024-03-04T14:48:33.087Z,12.80
2024-03-04T14:51:02.721Z,12.88
2024-03-04T14:53:33.261Z,13.08
2024-03-04T14:56:03.420Z,13.23
2024-03-04T14:58:31.617Z,13.30
2024-03-04T15:00:59.993Z,13.43
2024-03-04T15:03:29.391Z,13.40
2024-03-04T15:05:58.005Z,13.19
2024-03-04T15:08:27.809Z,13.20
2024-03-04T15:10:59.248Z,13.21
2024-03-04T15:13:29.306Z,13.27
2024-03-04T15:15:57.651Z,13.52
2024-03-04T15:18:25.993Z,13.43
2024-03-04T15:20:54.712Z,13.28
2024-03-04T15:23:23.118Z,13.27
2024-03-04T15:25:53.044Z,13.11
2024-03-04T15:28:25.917Z,12.91
2024-03-04T15:30:56.022Z,13.05
2024-03-04T15:33:24.184Z,12.83
2024-03-04T15:35:56.813Z,12.92
2024-03-04T15:38:30.786Z,13.05
2024-03-04T15:41:00.377Z,12.73
2024-03-04T15:43:28.897Z,12.67
2024-03-04T15:45:57.479Z,12.61
2024-03-04T15:48:25.835Z,12.67
2024-03-04T15:50:54.063Z,12.60
2024-03-04T15:53:22.312Z,12.51
2024-03-04T15:55:50.788Z,12.57
2024-03-04T15:58:22.102Z,12.52
2024-03-04T16:00:51.236Z,12.49
2024-03-04T16:03:19.453Z,12.48
2024-03-04T16:05:47.790Z,12.43
2024-03-04T16:08:16.272Z,12.39
2024-03-04T16:10:44.394Z,12.37
2024-03-04T16:13:15.924Z,12.40
2024-03-04T16:15:52.520Z,12.32
2024-03-04T16:18:22.775Z,12.20
2024-03-04T16:20:51.045Z,12.16
2024-03-04T16:23:19.532Z,12.08
2024-03-04T16:25:47.991Z,11.98
2024-03-04T16:28:16.574Z,11.95
2024-03-04T16:30:47.420Z,11.87
2024-03-04T16:33:15.923Z,11.86
2024-03-04T16:35:44.195Z,11.73
2024-03-04T16:38:13.346Z,11.70
2024-03-04T16:40:41.939Z,11.70
2024-03-04T16:43:10.340Z,11.63
2024-03-04T16:45:38.472Z,11.61
2024-03-04T16:48:08.585Z,11.60
2024-03-04T16:50:36.908Z,11.58
2024-03-04T16:53:05.431Z,11.57
2024-03-04T16:55:34.944Z,11.54
2024-03-04T16:58:04.557Z,11.46
2024-03-04T17:00:32.965Z,11.46
2024-03-04T17:03:02.869Z,11.36
2024-03-04T17:05:34.018Z,11.37
2024-03-04T17:08:03.796Z,11.26
2024-03-04T17:10:32.123Z,11.22
2024-03-04T17:13:00.353Z,11.10
2024-03-04T17:15:28.540Z,11.13
2024-03-04T17:17:56.753Z,11.11
2024-03-04T17:20:25.107Z,11.06
2024-03-04T17:22:58.442Z,11.04
2024-03-04T17:25:26.681Z,11.01
2024-03-04T17:27:54.852Z,10.99
2024-03-04T17:30:23.172Z,10.95
2024-03-04T17:32:51.468Z,10.85
2024-03-04T17:35:19.947Z,10.96
2024-03-04T17:37:48.276Z,10.91
2024-03-04T17:40:18.381Z,10.94
2024-03-04T17:42:47.240Z,10.93
2024-03-04T17:45:15.507Z,10.95
2024-03-04T17:47:43.616Z,10.95
2024-03-04T17:50:13.469Z,10.96
2024-03-04T17:52:43.683Z,10.95
2024-03-04T17:55:12.399Z,10.95
2024-03-04T17:57:44.066Z,10.87
2024-03-04T18:00:19.745Z,10.92
2024-03-04T18:02:48.171Z,10.94
2024-03-04T18:05:16.604Z,10.87
2024-03-04T18:07:44.914Z,10.83
2024-03-04T18:10:13.555Z,10.88
2024-03-04T18:12:43.034Z,10.87
2024-03-04T18:15:12.294Z,10.86
2024-03-04T18:17:41.137Z,10.83
2024-03-04T18:20:11.241Z,10.84
2024-03-04T18:22:39.502Z,10.90
2024-03-04T18:25:14.301Z,10.82
2024-03-04T18:27:44.075Z,10.84
2024-03-04T18:30:14.328Z,10.83
2024-03-04T18:32:42.607Z,10.79
2024-03-04T18:35:11.597Z,10.73
2024-03-04T18:37:40.247Z,10.75
2024-03-04T18:40:09.788Z,10.76
2024-03-04T18:42:40.318Z,10.80
2024-03-04T18:45:13.273Z,10.83
2024-03-04T18:47:41.336Z,10.77
2024-03-04T18:50:10.443Z,10.84
2024-03-04T18:52:41.426Z,10.76
2024-03-04T18:55:09.905Z,10.74
2024-03-04T18:57:38.254Z,10.73
2024-03-04T19:00:10.192Z,10.74
2024-03-04T19:02:40.127Z,10.68
2024-03-04T19:05:09.150Z,10.73
2024-03-04T19:07:37.813Z,10.79
2024-03-04T19:10:08.236Z,10.69
2024-03-04T19:12:36.863Z,10.72
2024-03-04T19:15:06.762Z,10.74
2024-03-04T19:17:35.070Z,10.76
2024-03-04T19:20:07.991Z,10.72
2024-03-04T19:22:36.389Z,10.82
2024-03-04T19:25:06.120Z,10.70
2024-03-04T19:27:34.619Z,10.70
2024-03-04T19:30:02.994Z,10.69
2024-03-04T19:32:31.498Z,10.71
2024-03-04T19:35:02.332Z,10.63
2024-03-04T19:37:32.105Z,10.65
2024-03-04T19:40:00.408Z,10.67
2024-03-04T19:42:28.699Z,10.66
2024-03-04T19:44:57.337Z,10.66
2024-03-04T19:47:30.608Z,10.68
2024-03-04T19:49:59.278Z,10.74
2024-03-04T19:52:27.529Z,10.71
2024-03-04T19:54:57.159Z,10.66
2024-03-04T19:57:32.728Z,10.66
2024-03-04T20:00:12.847Z,10.58
2024-03-04T20:02:41.096Z,10.62
2024-03-04T20:05:10.348Z,10.60
2024-03-04T20:07:40.908Z,10.65
2024-03-04T20:10:11.547Z,10.64
2024-03-04T20:12:39.724Z,10.64
2024-03-04T20:15:08.957Z,10.64
2024-03-04T20:17:37.557Z,10.64
2024-03-04T20:20:13.517Z,10.64
2024-03-04T20:22:41.895Z,10.66
2024-03-04T20:25:11.905Z,10.61
2024-03-04T20:27:40.379Z,10.57
2024-03-04T20:30:09.517Z,10.59
2024-03-04T20:32:38.003Z,10.55
2024-03-04T20:35:06.689Z,10.60
2024-03-04T20:37:35.091Z,10.55
2024-03-04T20:40:03.391Z,10.60
2024-03-04T20:42:32.843Z,10.63
2024-03-04T20:45:01.124Z,10.55
2024-03-04T20:47:29.239Z,10.51
2024-03-04T20:49:57.596Z,10.56
2024-03-04T20:52:27.392Z,10.53
2024-03-04T20:54:55.545Z,10.49
2024-03-04T20:57:23.607Z,10.50
2024-03-04T20:59:53.576Z,10.49
2024-03-04T21:02:21.922Z,10.52
2024-03-04T21:04:50.056Z,10.45
2024-03-04T21:07:19.888Z,10.44
2024-03-04T21:09:48.586Z,10.42
2024-03-04T21:12:17.076Z,10.45
2024-03-04T21:14:45.317Z,10.35
2024-03-04T21:17:14.867Z,10.36
2024-03-04T21:19:43.047Z,10.41
2024-03-04T21:22:11.671Z,10.36
2024-03-04T21:24:42.046Z,10.30
2024-03-04T21:27:10.109Z,10.29
2024-03-04T21:29:38.386Z,10.32
2024-03-04T21:32:06.658Z,10.29
2024-03-04T21:34:39.024Z,10.18
2024-03-04T21:37:09.640Z,10.19
2024-03-04T21:39:43.855Z,10.15
2024-03-04T21:42:12.187Z,10.12
2024-03-04T21:44:40.403Z,10.11
2024-03-04T21:47:08.585Z,10.11
2024-03-04T21:49:38.391Z,10.08
2024-03-04T21:52:06.976Z,10.05
2024-03-04T21:54:35.470Z,9.95
2024-03-04T21:57:03.691Z,9.95
2024-03-04T21:59:31.813Z,9.95
2024-03-04T22:01:59.989Z,10.00
2024-03-04T22:04:30.204Z,9.89
2024-03-04T22:06:59.664Z,9.85
2024-03-04T22:09:27.891Z,9.88
2024-03-04T22:11:56.207Z,9.94
2024-03-04T22:14:24.515Z,9.98
2024-03-04T22:16:52.750Z,9.96
2024-03-04T22:19:21.252Z,9.93
2024-03-04T22:21:49.394Z,10.00
2024-03-04T22:24:18.838Z,10.01
2024-03-04T22:26:47.300Z,10.02
2024-03-04T22:29:15.601Z,10.03
2024-03-04T22:31:44.325Z,10.00
2024-03-04T22:34:12.741Z,10.00
2024-03-04T22:36:44.414Z,10.08
2024-03-04T22:39:12.892Z,10.04
2024-03-04T22:41:47.086Z,10.04
2024-03-04T22:44:15.714Z,9.98
2024-03-04T22:46:44.546Z,9.90
2024-03-04T22:49:13.232Z,9.87
2024-03-04T22:51:41.494Z,9.93
2024-03-04T22:54:09.755Z,9.81
2024-03-04T22:56:38.093Z,9.77
2024-03-04T22:59:08.053Z,9.55
2024-03-04T23:01:36.211Z,9.63
2024-03-04T23:04:04.693Z,9.60
2024-03-04T23:06:32.884Z,9.45
2024-03-04T23:09:01.413Z,9.31
2024-03-04T23:11:29.692Z,9.16
2024-03-04T23:13:57.969Z,9.15
2024-03-04T23:16:28.864Z,9.10
2024-03-04T23:18:57.241Z,8.98
2024-03-04T23:21:25.638Z,8.96
2024-03-04T23:23:53.760Z,8.94
2024-03-04T23:26:22.176Z,8.78
2024-03-04T23:28:50.435Z,8.75
2024-03-04T23:31:20.677Z,8.73
2024-03-04T23:33:50.522Z,8.65
2024-03-04T23:36:22.593Z,8.58
2024-03-04T23:38:51.693Z,8.58
2024-03-04T23:41:19.869Z,8.58
2024-03-04T23:43:47.915Z,8.51
2024-03-04T23:46:16.415Z,8.59
2024-03-04T23:48:44.765Z,8.39
2024-03-04T23:51:14.257Z,8.27
2024-03-04T23:53:42.318Z,8.11
2024-03-04T23:56:10.594Z,8.21
2024-03-04T23:58:38.939Z,8.19
